Time;durP1;ratioP1;P1;durP2;ratioP2;P2;SDS_P1;SDS_P2;PMS_P1;PMS_P2;Temp;Humidity;BMP_temperature;BMP_pressure;BME280_temperature;BME280_humidity;BME280_pressure;Samples;Min_cycle;Max_cycle;Signal;HPM_P1;HPM_P2
2023/04/30 00:01:38;;;;;;;2.03;1.93;;;18.40;47.20;;;;;;5031930;28;20351;-70
2023/04/30 00:04:04;;;;;;;2.53;2.33;;;18.40;47.20;;;;;;5031125;28;20445;-70
2023/04/30 00:06:30;;;;;;;2.70;2.50;;;18.40;47.20;;;;;;5013918;28;20682;-70
2023/04/30 00:08:56;;;;;;;2.40;2.20;;;18.40;47.20;;;;;;5028075;28;20227;-73
2023/04/30 00:11:21;;;;;;;2.43;2.33;;;18.40;47.20;;;;;;5031272;28;20627;-71
2023/04/30 00:13:47;;;;;;;2.47;2.37;;;18.40;47.20;;;;;;5026716;28;20718;-70
2023/04/30 00:16:12;;;;;;;2.47;2.37;;;18.40;47.20;;;;;;5024741;28;20225;-70
2023/04/30 00:18:38;;;;;;;2.30;2.20;;;18.40;47.20;;;;;;5033381;28;20233;-71
2023/04/30 00:21:04;;;;;;;2.63;2.53;;;18.40;47.20;;;;;;5033557;28;20226;-71
2023/04/30 00:23:29;;;;;;;2.50;2.30;;;18.40;47.20;;;;;;5030084;28;20674;-70
2023/04/30 00:25:55;;;;;;;2.63;2.53;;;18.40;47.20;;;;;;5031526;28;20226;-70
2023/04/30 00:28:20;;;;;;;2.63;2.53;;;18.40;47.20;;;;;;5034196;28;20233;-70
2023/04/30 00:30:46;;;;;;;2.87;2.77;;;18.40;47.20;;;;;;5031569;28;20697;-72
2023/04/30 00:33:11;;;;;;;2.00;1.90;;;18.40;47.20;;;;;;5025356;28;20225;-70
2023/04/30 00:35:37;;;;;;;2.30;2.20;;;18.40;47.20;;;;;;5017669;28;20637;-71
2023/04/30 00:38:02;;;;;;;2.87;2.67;;;18.40;47.20;;;;;;5032781;28;20232;-69
2023/04/30 00:40:29;;;;;;;2.70;2.57;;;18.40;47.20;;;;;;5032505;28;20617;-73
2023/04/30 00:42:54;;;;;;;2.90;2.70;;;18.40;47.20;;;;;;5034199;28;20608;-70
2023/04/30 00:45:21;;;;;;;2.20;2.10;;;18.40;47.20;;;;;;5021579;28;20433;-69
2023/04/30 00:47:47;;;;;;;2.53;2.43;;;18.40;47.20;;;;;;5029052;28;20243;-70
2023/04/30 00:50:17;;;;;;;2.47;2.37;;;18.40;47.20;;;;;;5028985;28;20917;-73
2023/04/30 00:52:43;;;;;;;2.50;2.40;;;18.40;47.30;;;;;;5024499;28;20444;-69
2023/04/30 00:55:10;;;;;;;2.53;2.43;;;18.40;47.20;;;;;;5030858;28;20495;-71
2023/04/30 00:57:37;;;;;;;2.70;2.50;;;18.40;47.20;;;;;;5020349;28;20507;-70
2023/04/30 01:00:04;;;;;;;3.03;2.70;;;18.30;47.10;;;;;;5025087;28;20951;-71
2023/04/30 01:02:30;;;;;;;2.20;2.00;;;18.30;47.10;;;;;;5031714;28;20467;-70
2023/04/30 01:04:56;;;;;;;2.37;2.17;;;18.40;47.20;;;;;;5025871;28;20499;-72
2023/04/30 01:07:23;;;;;;;2.30;2.10;;;18.40;47.30;;;;;;5029251;28;20445;-69
2023/04/30 01:09:49;;;;;;;2.37;2.27;;;18.40;47.20;;;;;;5032181;28;20441;-70
2023/04/30 01:12:35;;;;;;;2.27;2.17;;;18.40;47.20;;;;;;5030845;28;20422;-69
2023/04/30 01:15:20;;;;;;;2.50;2.40;;;18.30;47.10;;;;;;5022823;28;20293;-71
2023/04/30 01:18:13;;;;;;;2.57;2.47;;;18.40;47.20;;;;;;5029920;28;20553;-73
2023/04/30 01:20:44;;;;;;;2.73;2.53;;;18.30;47.10;;;;;;5016677;28;20447;-73
2023/04/30 01:23:33;;;;;;;2.27;2.17;;;18.30;47.10;;;;;;5020233;28;20499;-70
2023/04/30 01:26:56;;;;;;;2.53;2.43;;;18.30;47.10;;;;;;5023809;28;20435;-69
2023/04/30 01:29:23;;;;;;;2.73;2.20;;;18.30;47.10;;;;;;4989661;28;20505;-71
2023/04/30 01:31:49;;;;;;;2.40;2.30;;;18.30;47.10;;;;;;4993609;28;20526;-70
2023/04/30 01:34:14;;;;;;;2.07;1.97;;;18.30;47.10;;;;;;5006682;28;20428;-70
2023/04/30 01:37:07;;;;;;;2.17;2.07;;;18.30;47.10;;;;;;5026227;28;20332;-73
2023/04/30 01:39:51;;;;;;;2.40;2.20;;;18.30;47.10;;;;;;5019990;28;20246;-72
2023/04/30 01:42:21;;;;;;;2.20;2.10;;;18.30;47.10;;;;;;5028942;28;20482;-70
2023/04/30 01:45:22;;;;;;;2.20;2.10;;;18.30;47.10;;;;;;5025296;28;20472;-70
2023/04/30 01:47:56;;;;;;;2.10;2.00;;;18.30;47.10;;;;;;5007717;28;20508;-70
2023/04/30 01:50:33;;;;;;;2.20;2.10;;;18.30;47.10;;;;;;5029048;28;20519;-71
2023/04/30 01:53:01;;;;;;;2.17;2.07;;;18.30;47.10;;;;;;5019683;28;20905;-73
2023/04/30 01:55:42;;;;;;;2.27;2.17;;;18.30;47.10;;;;;;5026984;28;20458;-70
2023/04/30 01:58:13;;;;;;;2.37;2.27;;;18.30;47.10;;;;;;5022084;28;20489;-70
2023/04/30 02:00:39;;;;;;;2.10;2.00;;;18.30;47.10;;;;;;5018222;28;20465;-70
2023/04/30 02:03:05;;;;;;;2.60;2.50;;;18.30;47.10;;;;;;5029677;28;20501;-69
2023/04/30 02:05:31;;;;;;;1.83;1.73;;;18.30;47.10;;;;;;5028754;28;20465;-70
2023/04/30 02:07:56;;;;;;;2.00;1.90;;;18.30;47.10;;;;;;5012157;28;20226;-72
2023/04/30 02:10:24;;;;;;;2.17;2.07;;;18.30;47.10;;;;;;5024671;28;20226;-70
2023/04/30 02:12:50;;;;;;;2.27;2.17;;;18.30;47.10;;;;;;5024281;28;20230;-73
2023/04/30 02:15:16;;;;;;;2.40;2.30;;;18.30;47.10;;;;;;5028555;28;20472;-70
2023/04/30 02:17:41;;;;;;;2.53;2.43;;;18.30;47.10;;;;;;5031584;28;20437;-70
2023/04/30 02:20:08;;;;;;;1.90;1.80;;;18.30;47.10;;;;;;5027820;28;20301;-70
2023/04/30 02:22:34;;;;;;;2.10;2.00;;;18.30;47.10;;;;;;5032918;28;20241;-70
2023/04/30 02:24:59;;;;;;;2.57;2.37;;;18.30;47.10;;;;;;5018847;28;20860;-70
2023/04/30 02:27:25;;;;;;;2.30;2.20;;;18.30;47.00;;;;;;5034717;28;20433;-70
2023/04/30 02:29:52;;;;;;;2.13;2.03;;;18.30;47.10;;;;;;5033022;28;20213;-70
2023/04/30 02:32:18;;;;;;;2.10;2.00;;;18.30;47.00;;;;;;5028884;28;20226;-70
2023/04/30 02:34:44;;;;;;;2.03;1.93;;;18.30;47.80;;;;;;5020367;28;20422;-70
2023/04/30 02:37:09;;;;;;;2.27;2.17;;;18.30;47.00;;;;;;5029799;28;20224;-71
2023/04/30 02:39:35;;;;;;;2.00;1.90;;;18.30;47.10;;;;;;5028180;28;20472;-70
2023/04/30 02:42:01;;;;;;;2.23;2.03;;;18.30;47.10;;;;;;5033854;28;20296;-70
2023/04/30 02:44:27;;;;;;;2.33;2.23;;;18.30;47.10;;;;;;5033983;28;20229;-71
2023/04/30 02:46:52;;;;;;;2.00;1.90;;;18.30;47.10;;;;;;5028643;28;20249;-70
2023/04/30 02:49:18;;;;;;;2.07;1.97;;;18.30;47.10;;;;;;5033826;28;20550;-70
2023/04/30 02:51:43;;;;;;;2.40;2.30;;;18.30;47.10;;;;;;5008947;28;20697;-70
2023/04/30 02:54:09;;;;;;;2.77;2.67;;;18.30;47.10;;;;;;5017400;28;20219;-70
2023/04/30 02:56:35;;;;;;;2.00;1.90;;;18.30;47.10;;;;;;5021273;28;20215;-70
2023/04/30 02:59:00;;;;;;;2.10;2.00;;;18.30;47.10;;;;;;5019971;28;20252;-71
2023/04/30 03:01:26;;;;;;;2.30;2.20;;;18.30;47.10;;;;;;5018531;28;20222;-71
2023/04/30 03:03:52;;;;;;;2.00;1.90;;;18.30;47.10;;;;;;5026396;28;20262;-71
2023/04/30 03:06:17;;;;;;;2.23;2.13;;;18.30;47.10;;;;;;5019806;28;20304;-70
2023/04/30 03:08:43;;;;;;;1.80;1.70;;;18.30;47.00;;;;;;5031539;28;20230;-70
2023/04/30 03:11:08;;;;;;;2.10;2.00;;;18.30;47.00;;;;;;5032106;28;20222;-70
2023/04/30 03:13:34;;;;;;;2.00;1.90;;;18.30;47.00;;;;;;5024431;28;20616;-73
2023/04/30 03:16:01;;;;;;;1.87;1.77;;;18.30;47.00;;;;;;5025072;28;20702;-70
2023/04/30 03:18:27;;;;;;;2.23;2.13;;;18.30;47.10;;;;;;5027767;28;20238;-70
2023/04/30 03:20:53;;;;;;;2.00;1.90;;;18.30;47.00;;;;;;5016774;28;20453;-71
2023/04/30 03:23:18;;;;;;;2.10;2.00;;;18.30;47.00;;;;;;5017171;28;20434;-70
2023/04/30 03:25:44;;;;;;;2.03;1.93;;;18.30;47.00;;;;;;5027525;28;20230;-70
2023/04/30 03:28:09;;;;;;;2.33;2.13;;;18.30;47.10;;;;;;5025616;28;20329;-72
2023/04/30 03:30:35;;;;;;;2.27;2.17;;;18.30;47.10;;;;;;5030900;28;20261;-71
2023/04/30 03:33:00;;;;;;;1.90;1.80;;;18.30;47.00;;;;;;5024673;28;20301;-70
2023/04/30 03:35:26;;;;;;;2.30;2.10;;;18.30;47.00;;;;;;5025499;28;20914;-70
2023/04/30 03:37:52;;;;;;;1.80;1.70;;;18.30;47.10;;;;;;5028863;28;20973;-72
2023/04/30 03:40:17;;;;;;;2.30;2.20;;;18.30;47.00;;;;;;5030090;28;20230;-73
2023/04/30 03:42:43;;;;;;;1.90;1.80;;;18.30;47.00;;;;;;5023490;28;20313;-71
2023/04/30 03:45:09;;;;;;;2.10;2.00;;;18.30;47.00;;;;;;5021074;28;20230;-70
2023/04/30 03:47:35;;;;;;;2.00;1.90;;;18.30;47.00;;;;;;5027278;28;20226;-71
2023/04/30 03:50:02;;;;;;;2.27;2.17;;;18.30;47.00;;;;;;5026491;28;20559;-72
2023/04/30 03:52:28;;;;;;;1.80;1.70;;;18.30;47.00;;;;;;5028649;28;20459;-72
2023/04/30 03:54:53;;;;;;;2.70;2.60;;;18.30;47.00;;;;;;5017411;28;20508;-70
2023/04/30 03:57:19;;;;;;;1.80;1.70;;;18.30;47.00;;;;;;5009671;28;20230;-72
2023/04/30 03:59:45;;;;;;;2.00;1.90;;;18.30;47.00;;;;;;5021240;28;20230;-69
2023/04/30 04:02:10;;;;;;;2.23;2.13;;;18.30;47.00;;;;;;5028046;28;20324;-70
2023/04/30 04:04:36;;;;;;;1.87;1.77;;;18.30;47.00;;;;;;5029043;28;20230;-71
2023/04/30 04:07:02;;;;;;;2.20;2.10;;;18.30;47.00;;;;;;5023346;28;20230;-71
2023/04/30 04:09:28;;;;;;;3.03;2.83;;;18.30;47.00;;;;;;5026131;28;20272;-71
2023/04/30 04:11:53;;;;;;;1.90;1.80;;;18.30;47.00;;;;;;5027571;28;20431;-71
2023/04/30 04:14:19;;;;;;;2.30;2.20;;;18.30;47.10;;;;;;5029694;28;20239;-71
2023/04/30 04:16:45;;;;;;;2.00;1.90;;;18.30;47.10;;;;;;5032998;28;20222;-71
2023/04/30 04:19:14;;;;;;;1.90;1.80;;;18.30;47.00;;;;;;5026943;28;20230;-70
2023/04/30 04:21:40;;;;;;;1.90;1.80;;;18.30;47.00;;;;;;5031690;28;21433;-70
2023/04/30 04:24:07;;;;;;;2.00;1.90;;;18.30;47.00;;;;;;5035121;28;20498;-70
2023/04/30 04:26:36;;;;;;;2.00;1.90;;;18.30;47.00;;;;;;5034048;28;20296;-71
2023/04/30 04:29:03;;;;;;;2.23;2.13;;;18.30;47.00;;;;;;5018005;28;20519;-71
2023/04/30 04:31:30;;;;;;;2.37;2.27;;;18.30;47.00;;;;;;5019346;28;21201;-71
2023/04/30 04:33:58;;;;;;;1.97;1.87;;;18.30;47.00;;;;;;5030653;28;20468;-71
2023/04/30 04:36:26;;;;;;;1.90;1.80;;;18.30;47.00;;;;;;5025206;28;20492;-71
2023/04/30 04:38:52;;;;;;;2.10;2.00;;;18.30;47.00;;;;;;5029471;28;20491;-67
2023/04/30 04:41:18;;;;;;;1.97;1.87;;;18.30;47.00;;;;;;5033476;28;20410;-70
2023/04/30 04:43:43;;;;;;;2.07;1.97;;;18.30;47.00;;;;;;5027590;28;21032;-71
2023/04/30 04:46:09;;;;;;;1.80;1.70;;;18.30;46.90;;;;;;5029151;28;20222;-71
2023/04/30 04:48:34;;;;;;;1.83;1.73;;;18.30;47.00;;;;;;5027444;28;20230;-70
2023/04/30 04:51:00;;;;;;;1.70;1.60;;;18.30;46.90;;;;;;5030040;28;20229;-70
2023/04/30 04:53:25;;;;;;;1.80;1.70;;;18.30;46.90;;;;;;5025289;28;20225;-70
2023/04/30 04:55:51;;;;;;;1.87;1.77;;;18.30;47.00;;;;;;5033167;28;20233;-70
2023/04/30 04:58:17;;;;;;;1.90;1.80;;;18.30;46.90;;;;;;5034866;28;20238;-71
2023/04/30 05:00:43;;;;;;;2.23;1.97;;;18.30;46.90;;;;;;5028732;28;20313;-69
2023/04/30 05:03:09;;;;;;;1.97;1.87;;;18.30;47.00;;;;;;5040073;28;20992;-70
2023/04/30 05:05:34;;;;;;;1.70;1.60;;;18.30;46.90;;;;;;5015771;28;20423;-71
2023/04/30 05:08:00;;;;;;;2.00;1.90;;;18.30;46.90;;;;;;5021735;28;20701;-69
2023/04/30 05:10:25;;;;;;;2.40;2.27;;;18.30;46.90;;;;;;5031138;28;20244;-73
2023/04/30 05:12:51;;;;;;;1.90;1.80;;;18.30;46.90;;;;;;5032637;28;20313;-72
2023/04/30 05:15:16;;;;;;;2.07;1.97;;;18.30;46.90;;;;;;5029944;28;20604;-69
2023/04/30 05:17:42;;;;;;;1.70;1.60;;;18.30;46.90;;;;;;5029676;28;20241;-71
2023/04/30 05:20:08;;;;;;;1.73;1.63;;;18.30;46.90;;;;;;5034502;28;20207;-74
2023/04/30 05:22:34;;;;;;;2.10;1.90;;;18.30;46.90;;;;;;5033903;28;20210;-69
2023/04/30 05:24:59;;;;;;;2.23;1.90;;;18.30;46.90;;;;;;5034419;28;20433;-69
2023/04/30 05:27:25;;;;;;;1.90;1.80;;;18.30;46.90;;;;;;5033069;28;20218;-70
2023/04/30 05:29:51;;;;;;;1.60;1.50;;;18.30;47.60;;;;;;5023486;28;20302;-69
2023/04/30 05:32:17;;;;;;;2.10;2.00;;;18.30;46.90;;;;;;5032442;28;20436;-70
2023/04/30 05:34:42;;;;;;;1.80;1.70;;;18.30;46.90;;;;;;5034043;28;20234;-70
2023/04/30 05:37:07;;;;;;;2.13;2.03;;;18.30;46.90;;;;;;5023561;28;20237;-69
2023/04/30 05:39:33;;;;;;;1.90;1.80;;;18.30;46.90;;;;;;5032231;28;20222;-70
2023/04/30 05:41:58;;;;;;;1.83;1.73;;;18.30;46.90;;;;;;5028087;28;20264;-69
2023/04/30 05:44:24;;;;;;;2.10;1.90;;;18.30;46.90;;;;;;5029816;28;20222;-71
2023/04/30 05:46:50;;;;;;;2.07;1.97;;;18.30;46.90;;;;;;5024981;28;20229;-71
2023/04/30 05:49:15;;;;;;;1.70;1.60;;;18.30;47.70;;;;;;5030456;28;20599;-72
2023/04/30 05:51:41;;;;;;;2.23;2.13;;;18.30;46.90;;;;;;5009679;28;20662;-69
2023/04/30 05:54:06;;;;;;;1.60;1.50;;;18.30;46.90;;;;;;5033870;28;20575;-70
2023/04/30 05:56:32;;;;;;;2.07;1.97;;;18.30;46.90;;;;;;5021752;28;20249;-70
2023/04/30 05:58:57;;;;;;;2.00;1.90;;;18.30;46.90;;;;;;5021616;28;20712;-70
2023/04/30 06:01:24;;;;;;;1.67;1.57;;;18.30;46.90;;;;;;5031821;28;20692;-71
2023/04/30 06:03:49;;;;;;;1.70;1.60;;;18.30;46.90;;;;;;5033978;28;20222;-72
2023/04/30 06:06:15;;;;;;;1.80;1.70;;;18.30;46.90;;;;;;5025248;28;20944;-69
2023/04/30 06:08:43;;;;;;;1.87;1.77;;;18.30;46.90;;;;;;5022177;28;20218;-71
2023/04/30 06:11:10;;;;;;;2.00;1.90;;;18.30;46.90;;;;;;5032998;28;20722;-68
2023/04/30 06:13:35;;;;;;;1.70;1.60;;;18.30;46.80;;;;;;5026740;28;20471;-70
2023/04/30 06:16:01;;;;;;;3.43;1.70;;;18.30;46.80;;;;;;5017179;28;20578;-69
2023/04/30 06:18:27;;;;;;;1.60;1.50;;;18.30;46.90;;;;;;5027815;28;20227;-69
2023/04/30 06:20:52;;;;;;;1.70;1.60;;;18.30;46.80;;;;;;5029872;28;21691;-70
2023/04/30 06:23:18;;;;;;;1.73;1.63;;;18.30;46.80;;;;;;5032112;28;20737;-70
2023/04/30 06:25:43;;;;;;;1.60;1.50;;;18.30;46.80;;;;;;5025756;28;20233;-71
2023/04/30 06:28:09;;;;;;;1.60;1.50;;;18.30;46.80;;;;;;5030997;28;20222;-69
2023/04/30 06:30:36;;;;;;;1.80;1.70;;;18.30;46.80;;;;;;5015816;28;20233;-72
2023/04/30 06:33:02;;;;;;;1.80;1.70;;;18.30;46.80;;;;;;5021175;28;20218;-68
2023/04/30 06:35:27;;;;;;;1.70;1.60;;;18.30;46.80;;;;;;5017812;28;20446;-73
2023/04/30 06:37:53;;;;;;;1.80;1.70;;;18.30;46.80;;;;;;5026375;28;20242;-71
2023/04/30 06:40:19;;;;;;;2.20;2.10;;;18.40;46.90;;;;;;5028502;28;20237;-72
2023/04/30 06:42:44;;;;;;;1.83;1.73;;;18.40;46.90;;;;;;5024737;28;20229;-70
2023/04/30 06:45:11;;;;;;;1.80;1.60;;;18.40;46.90;;;;;;5025709;28;20437;-72
2023/04/30 06:47:37;;;;;;;2.17;1.80;;;18.30;46.80;;;;;;5029872;28;20303;-71
2023/04/30 06:50:03;;;;;;;2.10;2.00;;;18.30;46.90;;;;;;5025602;28;20472;-70
2023/04/30 06:52:29;;;;;;;1.80;1.70;;;18.30;46.80;;;;;;5020730;28;20226;-70
2023/04/30 06:54:55;;;;;;;2.10;2.00;;;18.40;46.90;;;;;;5030698;28;20499;-72
2023/04/30 06:57:21;;;;;;;1.87;1.60;;;18.30;46.80;;;;;;5030750;28;20246;-69
2023/04/30 06:59:46;;;;;;;1.80;1.70;;;18.40;46.90;;;;;;5028485;28;20785;-69
2023/04/30 07:02:12;;;;;;;1.83;1.73;;;18.30;46.80;;;;;;5027637;28;20218;-69
2023/04/30 07:04:37;;;;;;;2.20;1.73;;;18.40;46.80;;;;;;5022361;28;20260;-69
2023/04/30 07:07:03;;;;;;;1.80;1.70;;;18.30;46.80;;;;;;5019352;28;20215;-71
2023/04/30 07:09:29;;;;;;;1.70;1.60;;;18.30;46.80;;;;;;5027020;28;20230;-70
2023/04/30 07:11:57;;;;;;;2.33;1.80;;;18.40;47.00;;;;;;5015595;28;20966;-69
2023/04/30 07:14:23;;;;;;;4.40;2.10;;;18.40;46.90;;;;;;5036082;28;20230;-70
2023/04/30 07:16:52;;;;;;;4.00;1.60;;;18.40;46.80;;;;;;5027348;28;20434;-70
2023/04/30 07:19:18;;;;;;;1.97;1.87;;;18.40;46.80;;;;;;5031406;28;20649;-70
2023/04/30 07:21:43;;;;;;;2.13;2.00;;;18.40;46.80;;;;;;5020041;28;20450;-69
2023/04/30 07:24:09;;;;;;;2.60;1.60;;;18.40;46.90;;;;;;5026113;28;20222;-73
2023/04/30 07:26:35;;;;;;;1.70;1.60;;;18.40;46.90;;;;;;5024876;28;20244;-71
2023/04/30 07:29:01;;;;;;;1.90;1.80;;;18.40;46.80;;;;;;5027837;28;20245;-70
2023/04/30 07:31:26;;;;;;;1.83;1.73;;;18.40;46.80;;;;;;5025955;28;20226;-68
2023/04/30 07:33:54;;;;;;;3.00;2.20;;;18.40;46.90;;;;;;5030444;28;20955;-69
2023/04/30 07:36:19;;;;;;;1.70;1.60;;;18.40;46.80;;;;;;5015719;28;20272;-72
2023/04/30 07:38:45;;;;;;;3.10;1.60;;;18.40;46.80;;;;;;5023352;28;20426;-69
2023/04/30 07:41:10;;;;;;;1.70;1.60;;;18.40;46.80;;;;;;5005287;28;20230;-67
2023/04/30 07:43:36;;;;;;;1.73;1.63;;;18.40;46.90;;;;;;5016844;28;20301;-69
2023/04/30 07:46:02;;;;;;;1.80;1.70;;;18.40;46.90;;;;;;5024422;28;20222;-71
2023/04/30 07:48:28;;;;;;;1.87;1.77;;;18.40;46.80;;;;;;5014960;28;20221;-70
2023/04/30 07:50:54;;;;;;;2.10;2.00;;;18.40;46.80;;;;;;5028522;28;20452;-70
2023/04/30 07:53:20;;;;;;;2.20;2.10;;;18.40;46.80;;;;;;5030206;28;20215;-69
2023/04/30 07:55:46;;;;;;;1.70;1.60;;;18.40;46.80;;;;;;5026561;28;21375;-70
2023/04/30 07:58:11;;;;;;;1.77;1.67;;;18.40;46.80;;;;;;5031821;28;20270;-69
2023/04/30 08:00:37;;;;;;;3.30;2.10;;;18.40;47.60;;;;;;5029217;28;25035;-73
2023/04/30 08:03:02;;;;;;;2.07;1.80;;;18.40;46.90;;;;;;5032455;28;20746;-68
2023/04/30 08:05:28;;;;;;;1.80;1.70;;;18.40;46.80;;;;;;5031048;28;20808;-71
2023/04/30 08:07:53;;;;;;;2.00;1.90;;;18.40;46.80;;;;;;5029150;28;20271;-70
2023/04/30 08:10:19;;;;;;;2.00;1.90;;;18.40;46.90;;;;;;5035192;28;20241;-74
2023/04/30 08:12:45;;;;;;;1.80;1.70;;;18.40;46.80;;;;;;5029562;28;20253;-70
2023/04/30 08:15:11;;;;;;;2.37;2.17;;;18.40;46.90;;;;;;5035521;28;20363;-75
2023/04/30 08:17:36;;;;;;;1.63;1.53;;;18.40;46.90;;;;;;5030388;28;20435;-76
2023/04/30 08:20:05;;;;;;;2.03;1.70;;;18.40;46.80;;;;;;5028412;28;20683;-74
2023/04/30 08:22:32;;;;;;;1.80;1.70;;;18.40;46.80;;;;;;5031550;28;20264;-69
2023/04/30 08:25:00;;;;;;;2.20;2.10;;;18.40;47.60;;;;;;5030784;28;20794;-70
2023/04/30 08:27:26;;;;;;;1.80;1.70;;;18.40;46.80;;;;;;5033835;28;21022;-68
2023/04/30 08:29:51;;;;;;;2.23;1.80;;;18.40;46.80;;;;;;5035430;28;20453;-72
2023/04/30 08:32:18;;;;;;;1.63;1.53;;;18.40;46.90;;;;;;5028070;28;20233;-69
2023/04/30 08:34:44;;;;;;;3.23;1.57;;;18.40;46.80;;;;;;5031136;28;20253;-65
2023/04/30 08:37:09;;;;;;;1.80;1.70;;;18.40;46.80;;;;;;5033784;28;20907;-68
2023/04/30 08:39:35;;;;;;;1.70;1.60;;;18.40;46.80;;;;;;5033236;28;20323;-69
2023/04/30 08:42:02;;;;;;;1.57;1.47;;;18.40;46.70;;;;;;5034516;28;21171;-69
2023/04/30 08:44:30;;;;;;;1.77;1.50;;;18.40;46.80;;;;;;5021293;28;20222;-73
2023/04/30 08:46:59;;;;;;;1.73;1.63;;;18.50;46.80;;;;;;5022619;28;20554;-68
2023/04/30 08:49:25;;;;;;;1.50;1.40;;;18.50;46.80;;;;;;5027130;28;20423;-69
2023/04/30 08:51:51;;;;;;;1.60;1.50;;;18.50;46.80;;;;;;5036503;28;20983;-69
2023/04/30 08:54:17;;;;;;;2.03;1.73;;;18.50;46.80;;;;;;5033682;28;20219;-69
2023/04/30 08:56:46;;;;;;;1.93;1.73;;;18.50;46.80;;;;;;5019313;28;20427;-69
2023/04/30 08:59:12;;;;;;;1.40;1.30;;;18.50;46.80;;;;;;5033039;28;20477;-68
2023/04/30 09:01:38;;;;;;;1.60;1.50;;;18.50;46.80;;;;;;5030829;28;20498;-69
2023/04/30 09:04:05;;;;;;;1.83;1.73;;;18.50;46.80;;;;;;5030537;28;20434;-69
2023/04/30 09:06:30;;;;;;;1.63;1.53;;;18.50;46.80;;;;;;5024072;28;20296;-68
2023/04/30 09:08:56;;;;;;;1.77;1.67;;;18.50;46.80;;;;;;5031904;28;20505;-70
2023/04/30 09:11:26;;;;;;;1.60;1.50;;;18.50;46.80;;;;;;5031503;28;20214;-68
2023/04/30 09:13:54;;;;;;;1.80;1.70;;;18.50;46.80;;;;;;5036196;28;20575;-69
2023/04/30 09:16:20;;;;;;;2.23;1.67;;;18.50;46.80;;;;;;5032734;28;20429;-68
2023/04/30 09:18:47;;;;;;;1.63;1.53;;;18.50;46.80;;;;;;5024412;28;20465;-68
2023/04/30 09:21:13;;;;;;;2.60;2.40;;;18.50;46.70;;;;;;5031296;28;20496;-71
2023/04/30 09:23:55;;;;;;;1.67;1.57;;;18.50;46.80;;;;;;5024249;28;20439;-70
2023/04/30 09:26:33;;;;;;;2.10;2.00;;;18.50;46.80;;;;;;5023187;28;20417;-71
2023/04/30 09:29:00;;;;;;;1.50;1.40;;;18.50;46.80;;;;;;5015845;28;20664;-67
2023/04/30 09:31:27;;;;;;;1.43;1.33;;;18.50;46.80;;;;;;5014345;28;20545;-68
2023/04/30 09:33:53;;;;;;;1.80;1.70;;;18.50;46.80;;;;;;5025617;28;20581;-68
2023/04/30 09:36:19;;;;;;;4.00;1.50;;;18.50;46.80;;;;;;5035389;28;21177;-68
2023/04/30 09:38:45;;;;;;;1.73;1.60;;;18.50;46.80;;;;;;5030121;28;20325;-67
2023/04/30 09:41:26;;;;;;;1.60;1.50;;;18.50;46.70;;;;;;5021509;28;20458;-67
2023/04/30 09:43:55;;;;;;;1.87;1.53;;;18.50;46.70;;;;;;5016032;28;20400;-71
2023/04/30 09:46:36;;;;;;;2.50;1.67;;;18.50;46.80;;;;;;5012358;28;20963;-69
2023/04/30 09:49:03;;;;;;;1.60;1.50;;;18.50;46.80;;;;;;5028548;28;20430;-68
2023/04/30 09:51:30;;;;;;;1.60;1.50;;;18.50;46.80;;;;;;5012232;28;20463;-68
2023/04/30 09:53:56;;;;;;;1.57;1.47;;;18.50;46.80;;;;;;5026418;28;20459;-71
2023/04/30 09:56:24;;;;;;;4.63;1.50;;;18.50;46.80;;;;;;5031722;28;20503;-68
2023/04/30 09:58:55;;;;;;;4.03;1.70;;;18.50;46.80;;;;;;5033358;28;20503;-70
2023/04/30 10:01:27;;;;;;;1.70;1.60;;;18.50;46.80;;;;;;5021861;28;20986;-68
2023/04/30 10:03:54;;;;;;;2.77;1.50;;;18.50;46.70;;;;;;5029488;28;20465;-67
2023/04/30 10:06:20;;;;;;;1.80;1.70;;;18.50;46.80;;;;;;5028552;28;20459;-68
2023/04/30 10:08:49;;;;;;;1.90;1.33;;;18.50;46.70;;;;;;5031743;28;20436;-72
2023/04/30 10:11:20;;;;;;;1.50;1.40;;;18.50;46.80;;;;;;5028583;28;20222;-68
2023/04/30 10:13:55;;;;;;;1.70;1.60;;;18.50;46.80;;;;;;5022845;28;20428;-68
2023/04/30 10:16:36;;;;;;;2.37;1.90;;;18.50;46.80;;;;;;5021915;28;20512;-68
2023/04/30 10:19:31;;;;;;;1.40;1.30;;;18.50;46.80;;;;;;5020921;28;20579;-65
2023/04/30 10:21:58;;;;;;;1.37;1.27;;;18.50;46.80;;;;;;5024109;28;20524;-65
2023/04/30 10:24:24;;;;;;;1.50;1.40;;;18.50;46.80;;;;;;5027591;28;20497;-68
2023/04/30 10:26:50;;;;;;;1.60;1.50;;;18.50;46.80;;;;;;5026011;28;20433;-68
2023/04/30 10:29:16;;;;;;;1.50;1.40;;;18.50;46.70;;;;;;5018016;28;20449;-68
2023/04/30 10:31:45;;;;;;;1.60;1.50;;;18.60;46.90;;;;;;5018806;28;20911;-67
2023/04/30 10:34:19;;;;;;;1.40;1.30;;;18.60;46.80;;;;;;5026304;28;20437;-68
2023/04/30 10:36:49;;;;;;;1.60;1.50;;;18.60;46.80;;;;;;5033656;28;20459;-68
2023/04/30 10:39:22;;;;;;;1.77;1.67;;;18.50;46.70;;;;;;5032618;28;20463;-68
2023/04/30 10:41:48;;;;;;;1.30;1.20;;;18.60;46.80;;;;;;5029172;28;20489;-68
2023/04/30 10:44:15;;;;;;;1.60;1.50;;;18.50;46.70;;;;;;5013908;28;20910;-68
2023/04/30 10:46:41;;;;;;;1.50;1.40;;;18.60;46.80;;;;;;5033335;28;20235;-68
2023/04/30 10:49:07;;;;;;;1.70;1.60;;;18.60;46.80;;;;;;5033960;28;20430;-67
2023/04/30 10:51:57;;;;;;;1.60;1.33;;;18.60;46.80;;;;;;5023349;28;20254;-67
2023/04/30 10:54:31;;;;;;;1.63;1.53;;;18.60;46.80;;;;;;5019606;28;21142;-69
2023/04/30 10:57:16;;;;;;;2.80;1.30;;;18.60;46.80;;;;;;5023122;28;20433;-67
2023/04/30 11:00:06;;;;;;;1.33;1.23;;;18.60;46.80;;;;;;5030403;28;20441;-67
2023/04/30 11:02:40;;;;;;;1.43;1.33;;;18.60;46.80;;;;;;5027421;28;20476;-68
2023/04/30 11:05:06;;;;;;;1.40;1.30;;;18.60;46.80;;;;;;5033709;28;20522;-67
2023/04/30 11:07:32;;;;;;;1.73;1.63;;;18.60;46.80;;;;;;5031313;28;20541;-67
2023/04/30 11:09:57;;;;;;;1.40;1.30;;;18.60;46.80;;;;;;5021600;28;21009;-68
2023/04/30 11:12:28;;;;;;;1.50;1.40;;;18.60;46.80;;;;;;5029998;28;20268;-68
2023/04/30 11:15:05;;;;;;;1.57;1.47;;;18.60;46.80;;;;;;5031391;28;20241;-68
2023/04/30 11:17:32;;;;;;;1.60;1.50;;;18.60;46.80;;;;;;5036914;28;20458;-67
2023/04/30 11:20:01;;;;;;;1.40;1.30;;;18.60;46.80;;;;;;5035823;28;20526;-68
2023/04/30 11:22:29;;;;;;;1.70;1.60;;;18.60;46.80;;;;;;5029084;28;20497;-68
2023/04/30 11:24:57;;;;;;;1.50;1.40;;;18.60;46.80;;;;;;5030844;28;21105;-69
2023/04/30 11:27:27;;;;;;;1.70;1.60;;;18.60;46.80;;;;;;5022018;28;20435;-68
2023/04/30 11:29:54;;;;;;;1.43;1.33;;;18.60;46.90;;;;;;5013610;28;20546;-68
2023/04/30 11:32:22;;;;;;;1.33;1.23;;;18.60;46.80;;;;;;5017163;28;20462;-68
2023/04/30 11:34:48;;;;;;;1.33;1.23;;;18.60;46.80;;;;;;5034996;28;20426;-68
2023/04/30 11:37:20;;;;;;;1.40;1.30;;;18.60;46.90;;;;;;5036485;28;20433;-67
2023/04/30 11:39:47;;;;;;;1.43;1.30;;;18.60;46.80;;;;;;5038594;28;20446;-67
2023/04/30 11:42:18;;;;;;;1.60;1.50;;;18.60;46.80;;;;;;5031023;28;20426;-67
2023/04/30 11:44:44;;;;;;;2.23;1.30;;;18.60;46.80;;;;;;5035144;28;20480;-67
2023/04/30 11:47:10;;;;;;;2.00;1.40;;;18.60;46.80;;;;;;5035080;28;20454;-68
2023/04/30 11:49:36;;;;;;;1.40;1.30;;;18.60;46.80;;;;;;5034431;28;20483;-67
2023/04/30 11:52:02;;;;;;;1.70;1.50;;;18.60;46.80;;;;;;5034558;28;20810;-68
2023/04/30 11:54:31;;;;;;;1.40;1.30;;;18.60;46.80;;;;;;5026988;28;20427;-69
2023/04/30 11:57:02;;;;;;;2.23;1.40;;;18.60;46.80;;;;;;5033591;28;20433;-68
2023/04/30 11:59:29;;;;;;;1.60;1.50;;;18.60;46.80;;;;;;5021914;28;20576;-68
2023/04/30 12:01:54;;;;;;;1.77;1.40;;;18.60;46.80;;;;;;5013209;28;20782;-68
2023/04/30 12:04:21;;;;;;;1.30;1.20;;;18.60;46.80;;;;;;5033526;28;20478;-69
2023/04/30 12:06:47;;;;;;;2.80;1.93;;;18.60;46.80;;;;;;5025108;28;20305;-68
2023/04/30 12:09:12;;;;;;;1.53;1.43;;;18.60;46.80;;;;;;5032912;28;20579;-69
2023/04/30 12:11:38;;;;;;;1.30;1.20;;;18.60;46.80;;;;;;5030574;28;20225;-68
2023/04/30 12:14:13;;;;;;;1.50;1.20;;;18.60;46.80;;;;;;5037243;28;20840;-68
2023/04/30 12:16:50;;;;;;;1.43;1.30;;;18.60;46.80;;;;;;5022579;28;20232;-69
2023/04/30 12:19:17;;;;;;;5.80;1.30;;;18.60;46.80;;;;;;5037605;28;20484;-69
2023/04/30 12:21:45;;;;;;;1.40;1.30;;;18.60;46.80;;;;;;5030235;28;20796;-69
2023/04/30 12:24:11;;;;;;;1.50;1.27;;;18.60;46.80;;;;;;5032374;28;20542;-69
2023/04/30 12:26:38;;;;;;;2.60;1.30;;;18.60;46.80;;;;;;5035632;28;20429;-69
2023/04/30 12:29:07;;;;;;;2.13;1.73;;;18.60;46.80;;;;;;5031363;28;20450;-70
2023/04/30 12:31:33;;;;;;;2.70;1.60;;;18.60;46.80;;;;;;5030357;28;20422;-69
2023/04/30 12:34:04;;;;;;;2.53;1.60;;;18.60;46.80;;;;;;5031056;28;21302;-70
2023/04/30 12:36:31;;;;;;;1.93;1.40;;;18.60;46.80;;;;;;5034841;28;20214;-69
2023/04/30 12:39:11;;;;;;;1.63;1.53;;;18.60;46.80;;;;;;5022596;28;20463;-69
2023/04/30 12:41:48;;;;;;;1.33;1.23;;;18.60;46.80;;;;;;5027286;28;20437;-69
2023/04/30 12:44:18;;;;;;;1.63;1.40;;;18.60;46.80;;;;;;5027098;28;20426;-69
2023/04/30 12:46:45;;;;;;;1.80;1.60;;;18.60;46.80;;;;;;5018514;28;20475;-69
2023/04/30 12:49:11;;;;;;;2.20;1.27;;;18.60;46.80;;;;;;5025126;28;20463;-69
2023/04/30 12:51:39;;;;;;;1.60;1.50;;;18.60;46.80;;;;;;5012037;28;20529;-69